sensor_id;sensor_type;location;lat;lon;timestamp;pressure;altitude;pressure_sealevel;temperature;humidity
70250;BME280;57644;48.416;-123.374;2022-11-18T00:00:13;103270.03;;;1.81;49.83
70250;BME280;57644;48.416;-123.374;2022-11-18T00:02:42;103271.56;;;1.69;50.14
70250;BME280;57644;48.416;-123.374;2022-11-18T00:07:48;103265.78;;;1.47;49.93
70250;BME280;57644;48.416;-123.374;2022-11-18T00:10:14;103267.00;;;1.66;50.06
70250;BME280;57644;48.416;-123.374;2022-11-18T00:12:44;103268.59;;;1.62;49.87
70250;BME280;57644;48.416;-123.374;2022-11-18T00:15:15;103268.01;;;1.59;50.12
70250;BME280;57644;48.416;-123.374;2022-11-18T00:17:45;103272.46;;;1.20;49.84
70250;BME280;57644;48.416;-123.374;2022-11-18T00:20:16;103272.29;;;1.29;49.90
70250;BME280;57644;48.416;-123.374;2022-11-18T00:22:46;103275.32;;;1.41;49.79
70250;BME280;57644;48.416;-123.374;2022-11-18T00:25:16;103278.36;;;1.48;50.04
70250;BME280;57644;48.416;-123.374;2022-11-18T00:27:47;103276.54;;;1.40;50.31
70250;BME280;57644;48.416;-123.374;2022-11-18T00:30:18;103274.91;;;1.46;50.44
70250;BME280;57644;48.416;-123.374;2022-11-18T00:32:47;103279.45;;;1.46;50.80
70250;BME280;57644;48.416;-123.374;2022-11-18T00:35:33;103276.16;;;1.45;51.00
70250;BME280;57644;48.416;-123.374;2022-11-18T00:37:48;103276.16;;;1.35;51.20
70250;BME280;57644;48.416;-123.374;2022-11-18T00:40:19;103279.58;;;1.38;51.05
70250;BME280;57644;48.416;-123.374;2022-11-18T00:42:49;103274.82;;;1.38;51.23
70250;BME280;57644;48.416;-123.374;2022-11-18T00:45:21;103270.42;;;1.42;51.12
70250;BME280;57644;48.416;-123.374;2022-11-18T00:47:51;103273.78;;;1.12;51.58
70250;BME280;57644;48.416;-123.374;2022-11-18T00:58:01;103280.12;;;1.08;51.27
70250;BME280;57644;48.416;-123.374;2022-11-18T01:00:33;103284.17;;;0.95;51.05
70250;BME280;57644;48.416;-123.374;2022-11-18T01:05:39;103283.92;;;1.07;51.53
70250;BME280;57644;48.416;-123.374;2022-11-18T01:10:26;103279.43;;;1.03;51.76
70250;BME280;57644;48.416;-123.374;2022-11-18T01:13:00;103277.38;;;1.09;51.45
70250;BME280;57644;48.416;-123.374;2022-11-18T01:18:01;103282.50;;;1.15;51.39
70250;BME280;57644;48.416;-123.374;2022-11-18T01:23:13;103281.93;;;1.25;51.74
70250;BME280;57644;48.416;-123.374;2022-11-18T01:28:06;103278.33;;;1.18;51.36
70250;BME280;57644;48.416;-123.374;2022-11-18T01:30:28;103279.15;;;1.14;50.97
70250;BME280;57644;48.416;-123.374;2022-11-18T01:33:03;103277.02;;;1.11;51.24
70250;BME280;57644;48.416;-123.374;2022-11-18T01:35:32;103279.57;;;1.01;51.05
70250;BME280;57644;48.416;-123.374;2022-11-18T01:37:59;103275.94;;;0.99;51.20
70250;BME280;57644;48.416;-123.374;2022-11-18T01:40:33;103277.02;;;0.92;50.97
70250;BME280;57644;48.416;-123.374;2022-11-18T01:43:01;103272.55;;;0.89;51.02
70250;BME280;57644;48.416;-123.374;2022-11-18T01:45:34;103279.37;;;0.72;50.95
70250;BME280;57644;48.416;-123.374;2022-11-18T01:48:05;103278.03;;;0.75;51.02
70250;BME280;57644;48.416;-123.374;2022-11-18T01:53:06;103287.31;;;0.64;51.18
70250;BME280;57644;48.416;-123.374;2022-11-18T01:55:36;103288.40;;;0.54;51.23
70250;BME280;57644;48.416;-123.374;2022-11-18T01:58:09;103293.92;;;0.32;51.68
70250;BME280;57644;48.416;-123.374;2022-11-18T02:00:35;103292.29;;;0.49;51.67
70250;BME280;57644;48.416;-123.374;2022-11-18T02:03:05;103293.19;;;0.41;51.68
70250;BME280;57644;48.416;-123.374;2022-11-18T02:05:36;103292.08;;;0.41;51.96
70250;BME280;57644;48.416;-123.374;2022-11-18T02:08:06;103292.21;;;0.23;52.23
70250;BME280;57644;48.416;-123.374;2022-11-18T02:10:36;103293.21;;;0.42;52.16
70250;BME280;57644;48.416;-123.374;2022-11-18T02:13:07;103299.31;;;0.43;52.13
70250;BME280;57644;48.416;-123.374;2022-11-18T02:15:46;103301.37;;;0.30;52.68
70250;BME280;57644;48.416;-123.374;2022-11-18T02:18:13;103300.94;;;0.16;52.51
70250;BME280;57644;48.416;-123.374;2022-11-18T02:20:41;103301.56;;;0.09;52.79
70250;BME280;57644;48.416;-123.374;2022-11-18T02:25:46;103305.70;;;0.13;53.01
70250;BME280;57644;48.416;-123.374;2022-11-18T02:28:24;103311.66;;;-0.04;53.03
70250;BME280;57644;48.416;-123.374;2022-11-18T02:30:43;103310.30;;;0.20;52.62
70250;BME280;57644;48.416;-123.374;2022-11-18T02:33:13;103312.22;;;0.08;53.16
70250;BME280;57644;48.416;-123.374;2022-11-18T02:35:43;103317.66;;;0.17;53.40
70250;BME280;57644;48.416;-123.374;2022-11-18T02:38:14;103315.82;;;-0.01;53.20
70250;BME280;57644;48.416;-123.374;2022-11-18T02:40:50;103317.57;;;0.16;53.08
70250;BME280;57644;48.416;-123.374;2022-11-18T02:43:17;103318.24;;;0.18;52.73
70250;BME280;57644;48.416;-123.374;2022-11-18T02:45:45;103320.11;;;0.12;52.90
70250;BME280;57644;48.416;-123.374;2022-11-18T02:48:13;103324.58;;;0.07;53.00
70250;BME280;57644;48.416;-123.374;2022-11-18T02:50:45;103327.20;;;0.17;52.93
70250;BME280;57644;48.416;-123.374;2022-11-18T02:53:17;103328.98;;;0.18;52.84
70250;BME280;57644;48.416;-123.374;2022-11-18T02:55:46;103322.99;;;-0.01;52.62
70250;BME280;57644;48.416;-123.374;2022-11-18T02:58:16;103325.21;;;0.15;52.63
70250;BME280;57644;48.416;-123.374;2022-11-18T03:00:52;103327.60;;;0.14;52.55
70250;BME280;57644;48.416;-123.374;2022-11-18T03:03:24;103331.04;;;-0.14;52.67
70250;BME280;57644;48.416;-123.374;2022-11-18T03:05:52;103333.45;;;-0.09;53.19
70250;BME280;57644;48.416;-123.374;2022-11-18T03:08:21;103340.20;;;-0.11;52.87
70250;BME280;57644;48.416;-123.374;2022-11-18T03:10:54;103340.22;;;-0.10;52.57
70250;BME280;57644;48.416;-123.374;2022-11-18T03:13:22;103334.92;;;-0.16;52.14
70250;BME280;57644;48.416;-123.374;2022-11-18T03:15:54;103338.66;;;-0.06;52.35
70250;BME280;57644;48.416;-123.374;2022-11-18T03:18:24;103341.19;;;-0.11;51.83
70250;BME280;57644;48.416;-123.374;2022-11-18T03:20:54;103346.58;;;0.02;52.10
70250;BME280;57644;48.416;-123.374;2022-11-18T03:23:26;103352.66;;;-0.10;52.00
70250;BME280;57644;48.416;-123.374;2022-11-18T03:25:54;103349.21;;;-0.02;52.16
70250;BME280;57644;48.416;-123.374;2022-11-18T03:28:26;103344.22;;;0.10;52.18
70250;BME280;57644;48.416;-123.374;2022-11-18T03:30:57;103339.69;;;0.00;52.41
70250;BME280;57644;48.416;-123.374;2022-11-18T03:33:27;103341.33;;;0.04;52.51
70250;BME280;57644;48.416;-123.374;2022-11-18T03:35:54;103351.21;;;-0.02;52.69
70250;BME280;57644;48.416;-123.374;2022-11-18T03:38:26;103355.24;;;-0.10;52.49
70250;BME280;57644;48.416;-123.374;2022-11-18T03:40:56;103351.65;;;-0.09;52.74
70250;BME280;57644;48.416;-123.374;2022-11-18T03:43:26;103342.63;;;0.01;52.72
70250;BME280;57644;48.416;-123.374;2022-11-18T03:45:58;103345.46;;;-0.24;53.24
70250;BME280;57644;48.416;-123.374;2022-11-18T03:58:39;103358.06;;;-0.05;51.33
70250;BME280;57644;48.416;-123.374;2022-11-18T04:13:35;103344.52;;;0.06;51.06
70250;BME280;57644;48.416;-123.374;2022-11-18T04:16:01;103343.91;;;0.28;51.34
70250;BME280;57644;48.416;-123.374;2022-11-18T04:18:31;103350.58;;;0.14;50.84
70250;BME280;57644;48.416;-123.374;2022-11-18T04:21:02;103353.29;;;0.18;51.08
70250;BME280;57644;48.416;-123.374;2022-11-18T04:23:31;103357.49;;;0.17;51.01
70250;BME280;57644;48.416;-123.374;2022-11-18T04:26:02;103355.46;;;0.17;51.12
70250;BME280;57644;48.416;-123.374;2022-11-18T04:28:32;103356.71;;;0.18;51.41
70250;BME280;57644;48.416;-123.374;2022-11-18T04:31:03;103358.42;;;0.27;51.70
70250;BME280;57644;48.416;-123.374;2022-11-18T04:33:33;103357.72;;;0.28;51.53
70250;BME280;57644;48.416;-123.374;2022-11-18T04:36:03;103356.30;;;0.28;51.42
70250;BME280;57644;48.416;-123.374;2022-11-18T04:38:33;103353.51;;;0.28;51.32
70250;BME280;57644;48.416;-123.374;2022-11-18T04:41:04;103354.55;;;0.19;51.36
70250;BME280;57644;48.416;-123.374;2022-11-18T04:43:34;103356.83;;;0.20;51.15
70250;BME280;57644;48.416;-123.374;2022-11-18T04:46:09;103361.80;;;0.19;51.39
70250;BME280;57644;48.416;-123.374;2022-11-18T04:48:43;103360.46;;;0.08;51.33
70250;BME280;57644;48.416;-123.374;2022-11-18T04:51:05;103353.86;;;0.02;51.67
70250;BME280;57644;48.416;-123.374;2022-11-18T04:53:35;103351.94;;;0.06;51.86
70250;BME280;57644;48.416;-123.374;2022-11-18T04:56:06;103352.45;;;0.13;51.71
70250;BME280;57644;48.416;-123.374;2022-11-18T04:58:36;103352.76;;;-0.05;51.94
70250;BME280;57644;48.416;-123.374;2022-11-18T05:01:07;103348.36;;;0.02;52.02
70250;BME280;57644;48.416;-123.374;2022-11-18T05:03:46;103348.18;;;0.08;52.18
70250;BME280;57644;48.416;-123.374;2022-11-18T05:11:09;103347.48;;;0.05;52.47
70250;BME280;57644;48.416;-123.374;2022-11-18T05:13:39;103348.76;;;0.05;52.68
70250;BME280;57644;48.416;-123.374;2022-11-18T05:16:09;103346.01;;;0.12;52.50
70250;BME280;57644;48.416;-123.374;2022-11-18T05:18:40;103344.95;;;0.05;52.77
70250;BME280;57644;48.416;-123.374;2022-11-18T05:21:12;103345.53;;;0.12;52.96
70250;BME280;57644;48.416;-123.374;2022-11-18T05:23:42;103347.31;;;0.13;52.98
70250;BME280;57644;48.416;-123.374;2022-11-18T05:26:26;103347.20;;;0.18;53.18
70250;BME280;57644;48.416;-123.374;2022-11-18T05:28:42;103344.85;;;0.03;53.32
70250;BME280;57644;48.416;-123.374;2022-11-18T05:31:15;103347.68;;;-0.26;53.53
70250;BME280;57644;48.416;-123.374;2022-11-18T05:33:43;103350.10;;;-0.13;53.84
70250;BME280;57644;48.416;-123.374;2022-11-18T05:36:15;103347.22;;;-0.05;54.00
70250;BME280;57644;48.416;-123.374;2022-11-18T05:38:44;103350.72;;;-0.06;54.43
70250;BME280;57644;48.416;-123.374;2022-11-18T05:41:14;103352.95;;;-0.05;54.25
70250;BME280;57644;48.416;-123.374;2022-11-18T05:46:15;103355.91;;;-0.13;54.76
70250;BME280;57644;48.416;-123.374;2022-11-18T05:48:45;103357.34;;;-0.05;54.69
70250;BME280;57644;48.416;-123.374;2022-11-18T05:51:16;103360.97;;;-0.06;54.68
70250;BME280;57644;48.416;-123.374;2022-11-18T05:53:48;103363.53;;;-0.09;53.98
70250;BME280;57644;48.416;-123.374;2022-11-18T05:56:20;103361.41;;;-0.13;54.42
70250;BME280;57644;48.416;-123.374;2022-11-18T05:58:47;103363.20;;;-0.11;54.50
70250;BME280;57644;48.416;-123.374;2022-11-18T06:01:21;103365.25;;;-0.11;54.61
70250;BME280;57644;48.416;-123.374;2022-11-18T06:06:20;103369.05;;;-0.10;55.14
70250;BME280;57644;48.416;-123.374;2022-11-18T06:08:53;103368.31;;;-0.18;55.89
70250;BME280;57644;48.416;-123.374;2022-11-18T06:11:23;103365.19;;;-0.26;55.99
70250;BME280;57644;48.416;-123.374;2022-11-18T06:14:06;103372.61;;;-0.32;56.47
70250;BME280;57644;48.416;-123.374;2022-11-18T06:16:25;103375.64;;;-0.38;56.54
70250;BME280;57644;48.416;-123.374;2022-11-18T06:18:51;103374.45;;;-0.39;56.73
70250;BME280;57644;48.416;-123.374;2022-11-18T06:21:21;103374.15;;;-0.42;56.71
70250;BME280;57644;48.416;-123.374;2022-11-18T06:23:50;103379.48;;;-0.44;56.82
70250;BME280;57644;48.416;-123.374;2022-11-18T06:26:21;103377.49;;;-0.50;57.25
70250;BME280;57644;48.416;-123.374;2022-11-18T06:28:51;103378.62;;;-0.66;57.55
70250;BME280;57644;48.416;-123.374;2022-11-18T06:31:22;103383.89;;;-0.91;57.94
70250;BME280;57644;48.416;-123.374;2022-11-18T06:33:52;103380.23;;;-0.91;58.35
70250;BME280;57644;48.416;-123.374;2022-11-18T06:36:23;103382.83;;;-0.91;58.36
70250;BME280;57644;48.416;-123.374;2022-11-18T06:38:53;103382.29;;;-0.93;58.39
70250;BME280;57644;48.416;-123.374;2022-11-18T06:41:24;103376.35;;;-1.00;58.52
70250;BME280;57644;48.416;-123.374;2022-11-18T06:43:54;103375.28;;;-0.97;58.52
70250;BME280;57644;48.416;-123.374;2022-11-18T06:46:25;103367.45;;;-1.03;58.70
70250;BME280;57644;48.416;-123.374;2022-11-18T06:49:01;103370.61;;;-1.04;58.84
70250;BME280;57644;48.416;-123.374;2022-11-18T06:53:57;103373.99;;;-1.06;58.90
70250;BME280;57644;48.416;-123.374;2022-11-18T06:56:26;103376.52;;;-1.08;59.02
70250;BME280;57644;48.416;-123.374;2022-11-18T06:58:57;103377.56;;;-1.07;58.66
70250;BME280;57644;48.416;-123.374;2022-11-18T07:01:28;103378.60;;;-1.08;58.93
70250;BME280;57644;48.416;-123.374;2022-11-18T07:03:58;103375.88;;;-1.06;58.83
70250;BME280;57644;48.416;-123.374;2022-11-18T07:06:29;103371.31;;;-1.06;59.16
70250;BME280;57644;48.416;-123.374;2022-11-18T07:09:00;103368.23;;;-1.10;59.08
70250;BME280;57644;48.416;-123.374;2022-11-18T07:11:29;103366.49;;;-1.12;59.56
70250;BME280;57644;48.416;-123.374;2022-11-18T07:13:59;103364.90;;;-1.08;59.56
70250;BME280;57644;48.416;-123.374;2022-11-18T07:16:29;103358.87;;;-0.99;59.37
70250;BME280;57644;48.416;-123.374;2022-11-18T07:19:00;103356.46;;;-0.94;59.40
70250;BME280;57644;48.416;-123.374;2022-11-18T07:21:31;103358.32;;;-0.94;59.22
70250;BME280;57644;48.416;-123.374;2022-11-18T07:24:03;103358.38;;;-0.96;59.40
70250;BME280;57644;48.416;-123.374;2022-11-18T07:26:31;103360.32;;;-0.99;59.67
70250;BME280;57644;48.416;-123.374;2022-11-18T07:29:02;103360.74;;;-1.10;60.27
70250;BME280;57644;48.416;-123.374;2022-11-18T07:31:33;103361.84;;;-1.09;60.06
70250;BME280;57644;48.416;-123.374;2022-11-18T07:34:03;103356.88;;;-1.10;60.21
70250;BME280;57644;48.416;-123.374;2022-11-18T07:36:33;103356.15;;;-1.25;60.50
70250;BME280;57644;48.416;-123.374;2022-11-18T07:39:05;103357.66;;;-1.24;60.46
70250;BME280;57644;48.416;-123.374;2022-11-18T07:41:39;103358.35;;;-1.26;60.56
70250;BME280;57644;48.416;-123.374;2022-11-18T07:44:05;103359.53;;;-1.29;61.13
70250;BME280;57644;48.416;-123.374;2022-11-18T07:46:36;103361.85;;;-1.34;61.44
70250;BME280;57644;48.416;-123.374;2022-11-18T07:49:07;103366.09;;;-1.62;62.93
70250;BME280;57644;48.416;-123.374;2022-11-18T07:51:38;103370.85;;;-1.73;62.87
70250;BME280;57644;48.416;-123.374;2022-11-18T07:54:07;103375.39;;;-1.83;63.03
70250;BME280;57644;48.416;-123.374;2022-11-18T07:56:38;103377.73;;;-1.92;63.18
70250;BME280;57644;48.416;-123.374;2022-11-18T07:59:16;103383.87;;;-1.99;62.98
70250;BME280;57644;48.416;-123.374;2022-11-18T08:01:40;103386.28;;;-1.89;62.95
70250;BME280;57644;48.416;-123.374;2022-11-18T08:04:10;103384.68;;;-1.81;62.91
70250;BME280;57644;48.416;-123.374;2022-11-18T08:06:40;103386.63;;;-1.80;62.57
70250;BME280;57644;48.416;-123.374;2022-11-18T08:09:11;103383.90;;;-1.84;62.52
70250;BME280;57644;48.416;-123.374;2022-11-18T08:11:41;103384.45;;;-1.83;62.23
70250;BME280;57644;48.416;-123.374;2022-11-18T08:14:12;103385.50;;;-1.92;62.57
70250;BME280;57644;48.416;-123.374;2022-11-18T08:16:42;103381.62;;;-1.95;62.75
70250;BME280;57644;48.416;-123.374;2022-11-18T08:19:12;103387.24;;;-1.99;62.73
70250;BME280;57644;48.416;-123.374;2022-11-18T08:21:43;103382.52;;;-1.99;62.88
70250;BME280;57644;48.416;-123.374;2022-11-18T08:24:13;103378.90;;;-2.02;63.13
70250;BME280;57644;48.416;-123.374;2022-11-18T08:26:43;103378.05;;;-1.95;62.81
70250;BME280;57644;48.416;-123.374;2022-11-18T08:29:14;103376.80;;;-2.02;62.81
70250;BME280;57644;48.416;-123.374;2022-11-18T08:31:44;103384.19;;;-2.01;62.82
70250;BME280;57644;48.416;-123.374;2022-11-18T08:34:14;103381.07;;;-2.01;62.59
70250;BME280;57644;48.416;-123.374;2022-11-18T08:41:46;103376.67;;;-2.15;63.13
70250;BME280;57644;48.416;-123.374;2022-11-18T08:44:16;103375.50;;;-2.16;63.14
70250;BME280;57644;48.416;-123.374;2022-11-18T08:46:46;103376.24;;;-2.21;63.31
70250;BME280;57644;48.416;-123.374;2022-11-18T08:49:16;103374.31;;;-2.22;63.20
70250;BME280;57644;48.416;-123.374;2022-11-18T08:51:47;103371.31;;;-2.21;63.39
70250;BME280;57644;48.416;-123.374;2022-11-18T08:54:18;103368.90;;;-2.12;63.31
70250;BME280;57644;48.416;-123.374;2022-11-18T08:59:19;103373.38;;;-2.20;63.92
70250;BME280;57644;48.416;-123.374;2022-11-18T09:04:21;103373.63;;;-2.09;63.54
70250;BME280;57644;48.416;-123.374;2022-11-18T09:11:50;103366.36;;;-1.98;61.93
70250;BME280;57644;48.416;-123.374;2022-11-18T09:14:21;103365.78;;;-1.94;61.46
70250;BME280;57644;48.416;-123.374;2022-11-18T09:16:51;103364.67;;;-1.88;61.36
70250;BME280;57644;48.416;-123.374;2022-11-18T09:19:22;103361.58;;;-1.88;61.00
70250;BME280;57644;48.416;-123.374;2022-11-18T09:21:53;103359.91;;;-1.90;61.09
70250;BME280;57644;48.416;-123.374;2022-11-18T09:24:22;103357.45;;;-1.97;61.04
70250;BME280;57644;48.416;-123.374;2022-11-18T09:26:53;103352.98;;;-2.03;60.78
70250;BME280;57644;48.416;-123.374;2022-11-18T09:29:23;103347.96;;;-1.96;60.93
70250;BME280;57644;48.416;-123.374;2022-11-18T09:31:54;103345.55;;;-1.97;61.01
70250;BME280;57644;48.416;-123.374;2022-11-18T09:34:23;103345.54;;;-2.16;61.27
70250;BME280;57644;48.416;-123.374;2022-11-18T09:36:54;103346.97;;;-2.19;61.76
70250;BME280;57644;48.416;-123.374;2022-11-18T09:39:25;103340.99;;;-2.14;61.76
70250;BME280;57644;48.416;-123.374;2022-11-18T09:42:04;103340.32;;;-2.16;61.98
70250;BME280;57644;48.416;-123.374;2022-11-18T09:49:31;103339.21;;;-2.24;62.15
70250;BME280;57644;48.416;-123.374;2022-11-18T09:57:13;103343.34;;;-2.17;62.26
70250;BME280;57644;48.416;-123.374;2022-11-18T09:59:34;103347.45;;;-2.09;61.78
70250;BME280;57644;48.416;-123.374;2022-11-18T10:02:10;103345.05;;;-1.99;61.24
70250;BME280;57644;48.416;-123.374;2022-11-18T10:04:30;103338.76;;;-2.04;61.38
70250;BME280;57644;48.416;-123.374;2022-11-18T10:07:00;103339.56;;;-2.16;61.88
70250;BME280;57644;48.416;-123.374;2022-11-18T10:09:33;103342.21;;;-2.18;61.70
70250;BME280;57644;48.416;-123.374;2022-11-18T10:12:11;103343.50;;;-2.29;62.34
70250;BME280;57644;48.416;-123.374;2022-11-18T10:17:07;103346.54;;;-2.41;62.69
70250;BME280;57644;48.416;-123.374;2022-11-18T10:19:35;103343.92;;;-2.39;62.95
70250;BME280;57644;48.416;-123.374;2022-11-18T10:22:14;103345.48;;;-2.40;62.86
70250;BME280;57644;48.416;-123.374;2022-11-18T10:24:37;103345.96;;;-2.38;62.90
70250;BME280;57644;48.416;-123.374;2022-11-18T10:27:10;103351.57;;;-2.48;63.15
70250;BME280;57644;48.416;-123.374;2022-11-18T10:29:34;103356.14;;;-2.48;63.11
70250;BME280;57644;48.416;-123.374;2022-11-18T10:34:45;103353.00;;;-2.45;62.25
70250;BME280;57644;48.416;-123.374;2022-11-18T10:37:12;103349.59;;;-2.49;62.59
70250;BME280;57644;48.416;-123.374;2022-11-18T10:42:09;103345.21;;;-2.44;62.35
70250;BME280;57644;48.416;-123.374;2022-11-18T10:44:39;103352.70;;;-2.45;62.25
70250;BME280;57644;48.416;-123.374;2022-11-18T10:47:20;103356.08;;;-2.56;62.05
70250;BME280;57644;48.416;-123.374;2022-11-18T10:49:39;103356.35;;;-2.62;62.52
70250;BME280;57644;48.416;-123.374;2022-11-18T10:54:40;103348.54;;;-2.64;62.58
70250;BME280;57644;48.416;-123.374;2022-11-18T10:57:17;103349.99;;;-2.82;63.30
70250;BME280;57644;48.416;-123.374;2022-11-18T10:59:45;103346.50;;;-2.84;63.20
70250;BME280;57644;48.416;-123.374;2022-11-18T11:02:16;103343.59;;;-2.81;63.20
70250;BME280;57644;48.416;-123.374;2022-11-18T11:04:42;103344.75;;;-2.85;63.70
70250;BME280;57644;48.416;-123.374;2022-11-18T11:07:19;103342.64;;;-2.87;63.63
70250;BME280;57644;48.416;-123.374;2022-11-18T11:12:15;103335.79;;;-3.09;64.53
70250;BME280;57644;48.416;-123.374;2022-11-18T11:14:49;103334.69;;;-2.93;64.07
70250;BME280;57644;48.416;-123.374;2022-11-18T11:17:18;103334.43;;;-2.86;63.76
70250;BME280;57644;48.416;-123.374;2022-11-18T11:19:50;103330.43;;;-2.91;63.87
70250;BME280;57644;48.416;-123.374;2022-11-18T11:22:15;103331.63;;;-3.33;64.59
70250;BME280;57644;48.416;-123.374;2022-11-18T11:24:45;103333.68;;;-3.29;64.75
70250;BME280;57644;48.416;-123.374;2022-11-18T11:40:00;103328.88;;;-2.77;63.78
70250;BME280;57644;48.416;-123.374;2022-11-18T11:42:33;103327.18;;;-2.76;63.57
70250;BME280;57644;48.416;-123.374;2022-11-18T11:49:55;103327.93;;;-2.74;63.38
70250;BME280;57644;48.416;-123.374;2022-11-18T11:52:27;103331.77;;;-2.73;62.81
70250;BME280;57644;48.416;-123.374;2022-11-18T11:54:53;103334.94;;;-2.78;62.80
70250;BME280;57644;48.416;-123.374;2022-11-18T11:57:27;103334.50;;;-2.80;62.63
70250;BME280;57644;48.416;-123.374;2022-11-18T11:59:56;103333.56;;;-2.76;62.43
70250;BME280;57644;48.416;-123.374;2022-11-18T12:02:30;103331.58;;;-2.86;62.63
70250;BME280;57644;48.416;-123.374;2022-11-18T12:10:03;103335.38;;;-2.90;62.13
70250;BME280;57644;48.416;-123.374;2022-11-18T12:12:27;103338.36;;;-2.88;61.83
70250;BME280;57644;48.416;-123.374;2022-11-18T12:14:58;103339.00;;;-2.97;61.94
70250;BME280;57644;48.416;-123.374;2022-11-18T12:17:29;103337.95;;;-3.25;61.88
70250;BME280;57644;48.416;-123.374;2022-11-18T12:19:53;103337.81;;;-3.17;61.98
70250;BME280;57644;48.416;-123.374;2022-11-18T12:24:54;103342.31;;;-3.27;62.31
70250;BME280;57644;48.416;-123.374;2022-11-18T12:29:56;103347.18;;;-3.24;62.21
70250;BME280;57644;48.416;-123.374;2022-11-18T12:32:29;103350.43;;;-3.24;61.87
70250;BME280;57644;48.416;-123.374;2022-11-18T12:34:59;103353.60;;;-3.45;61.96
70250;BME280;57644;48.416;-123.374;2022-11-18T12:39:59;103354.82;;;-3.44;62.34
70250;BME280;57644;48.416;-123.374;2022-11-18T12:50:08;103351.61;;;-3.35;61.50
70250;BME280;57644;48.416;-123.374;2022-11-18T12:55:01;103351.06;;;-3.50;61.55
70250;BME280;57644;48.416;-123.374;2022-11-18T12:57:32;103344.87;;;-3.40;61.51
70250;BME280;57644;48.416;-123.374;2022-11-18T13:02:31;103346.67;;;-3.30;61.07
70250;BME280;57644;48.416;-123.374;2022-11-18T13:05:06;103345.28;;;-3.23;60.82
70250;BME280;57644;48.416;-123.374;2022-11-18T13:07:38;103348.01;;;-3.24;60.23
70250;BME280;57644;48.416;-123.374;2022-11-18T13:10:15;103345.60;;;-3.30;60.69
70250;BME280;57644;48.416;-123.374;2022-11-18T13:12:33;103347.94;;;-3.28;61.01
70250;BME280;57644;48.416;-123.374;2022-11-18T13:15:11;103345.93;;;-3.27;60.87
70250;BME280;57644;48.416;-123.374;2022-11-18T13:17:36;103350.15;;;-3.26;60.46
70250;BME280;57644;48.416;-123.374;2022-11-18T13:20:16;103349.87;;;-3.29;60.48
70250;BME280;57644;48.416;-123.374;2022-11-18T13:22:35;103344.68;;;-3.34;60.23
70250;BME280;57644;48.416;-123.374;2022-11-18T13:27:43;103341.17;;;-3.26;60.78
70250;BME280;57644;48.416;-123.374;2022-11-18T13:30:10;103338.42;;;-3.18;60.57
70250;BME280;57644;48.416;-123.374;2022-11-18T13:32:47;103335.12;;;-3.28;60.54
70250;BME280;57644;48.416;-123.374;2022-11-18T13:35:13;103335.44;;;-3.25;60.82
70250;BME280;57644;48.416;-123.374;2022-11-18T13:37:47;103334.31;;;-3.29;60.69
70250;BME280;57644;48.416;-123.374;2022-11-18T13:40:15;103337.98;;;-3.32;60.59
70250;BME280;57644;48.416;-123.374;2022-11-18T13:42:43;103336.65;;;-3.29;60.91
70250;BME280;57644;48.416;-123.374;2022-11-18T13:45:13;103327.40;;;-3.36;61.24
70250;BME280;57644;48.416;-123.374;2022-11-18T13:47:42;103328.66;;;-3.27;60.20
70250;BME280;57644;48.416;-123.374;2022-11-18T13:57:46;103320.89;;;-3.14;61.37
70250;BME280;57644;48.416;-123.374;2022-11-18T14:05:21;103315.00;;;-3.45;61.53
70250;BME280;57644;48.416;-123.374;2022-11-18T14:10:18;103317.65;;;-3.49;62.10
70250;BME280;57644;48.416;-123.374;2022-11-18T14:12:59;103319.98;;;-3.34;62.01
70250;BME280;57644;48.416;-123.374;2022-11-18T14:15:20;103321.70;;;-3.36;62.30
70250;BME280;57644;48.416;-123.374;2022-11-18T14:17:58;103322.59;;;-3.18;62.19
70250;BME280;57644;48.416;-123.374;2022-11-18T14:20:24;103324.32;;;-3.12;62.34
70250;BME280;57644;48.416;-123.374;2022-11-18T14:25:29;103324.69;;;-3.12;62.89
70250;BME280;57644;48.416;-123.374;2022-11-18T14:35:17;103326.76;;;-3.04;63.93
70250;BME280;57644;48.416;-123.374;2022-11-18T14:37:48;103325.65;;;-3.01;64.47
70250;BME280;57644;48.416;-123.374;2022-11-18T14:40:18;103325.17;;;-3.02;64.64
70250;BME280;57644;48.416;-123.374;2022-11-18T14:42:52;103326.69;;;-2.94;64.50
70250;BME280;57644;48.416;-123.374;2022-11-18T14:45:19;103328.94;;;-2.81;64.44
70250;BME280;57644;48.416;-123.374;2022-11-18T14:47:53;103334.98;;;-2.76;64.49
70250;BME280;57644;48.416;-123.374;2022-11-18T14:52:59;103338.53;;;-2.64;64.30
70250;BME280;57644;48.416;-123.374;2022-11-18T14:55:21;103340.10;;;-2.76;65.37
70250;BME280;57644;48.416;-123.374;2022-11-18T14:57:54;103340.56;;;-2.79;65.35
70250;BME280;57644;48.416;-123.374;2022-11-18T15:00:22;103340.63;;;-2.81;65.74
70250;BME280;57644;48.416;-123.374;2022-11-18T15:02:55;103342.72;;;-2.76;65.78
70250;BME280;57644;48.416;-123.374;2022-11-18T15:05:29;103341.81;;;-2.74;66.32
70250;BME280;57644;48.416;-123.374;2022-11-18T15:07:54;103336.71;;;-2.66;66.09
70250;BME280;57644;48.416;-123.374;2022-11-18T15:10:26;103335.27;;;-2.67;66.32
70250;BME280;57644;48.416;-123.374;2022-11-18T15:12:54;103336.53;;;-2.70;66.69
70250;BME280;57644;48.416;-123.374;2022-11-18T15:15:25;103336.83;;;-2.89;67.77
70250;BME280;57644;48.416;-123.374;2022-11-18T15:17:56;103341.61;;;-2.98;68.14
70250;BME280;57644;48.416;-123.374;2022-11-18T15:20:25;103346.45;;;-2.87;67.74
70250;BME280;57644;48.416;-123.374;2022-11-18T15:22:56;103354.35;;;-2.92;67.82
70250;BME280;57644;48.416;-123.374;2022-11-18T15:25:26;103356.75;;;-3.06;68.85
70250;BME280;57644;48.416;-123.374;2022-11-18T15:27:57;103359.70;;;-3.24;69.78
70250;BME280;57644;48.416;-123.374;2022-11-18T15:30:26;103359.53;;;-3.20;69.66